Sd416 Nippon — SKPF — position and weather

sailwx.info

Track history (hours):
 
Tides and Currents Weather Stations Pressure Air Temp Water Temp Dewpoint Dewpoint Depression Visibility Wind Speed Wind Dir Waves Ship Positions

Sd416 Nippon

Last reported at 2017-Jan-18 21:33 UTC. Time now 2017-Jan-18 22:13 UTC.
Position N 58°56' E 011°10'.

Length 17 m; draft 2.5 m.

Type: Fishing. MMSI: 266163000.

Date/timePositionNaut miles runAvg speedWind from/ knotsBaromVisibWave heightAir tempDewpointWater temp
2017-Jan-18 21:33N 58°56' E 011°10'0 0.0
2017-Jan-18 20:33N 58°56' E 011°10'0 0.0
2017-Jan-18 19:33N 58°56' E 011°10'0 0.0
2017-Jan-18 18:33N 58°56' E 011°10'0 0.0
2017-Jan-18 17:33N 58°56' E 011°10'0 0.0
2017-Jan-18 16:33N 58°56' E 011°10'0 0.0
2017-Jan-18 15:33N 58°56' E 011°10'0 0.0
2017-Jan-18 14:33N 58°56' E 011°10'0 0.0
2017-Jan-18 13:33N 58°56' E 011°10'0 0.0
2017-Jan-18 12:33N 58°56' E 011°10'0 0.0
2017-Jan-18 11:33N 58°56' E 011°10'0 0.0
2017-Jan-18 10:33N 58°56' E 011°10'0 0.0
2017-Jan-18 09:33N 58°56' E 011°10'0 0.5
2017-Jan-18 08:33N 58°56' E 011°10'0 0.4
2017-Jan-18 07:33N 58°56' E 011°10'0 0.0
2017-Jan-18 06:33N 58°56' E 011°10'0 0.0
2017-Jan-18 05:33N 58°56' E 011°10'3 3.3
2017-Jan-18 04:33N 58°56' E 011°04'7 6.6
2017-Jan-18 03:33N 58°53' E 010°52'7 7.2
2017-Jan-18 02:33N 58°51' E 010°39'6 6.4
2017-Jan-18 01:33N 58°49' E 010°27'6 5.8
2017-Jan-18 00:33N 58°47' E 010°17'7 1.7
2017-Jan-17 20:29N 58°43' E 010°05'1 1.4
2017-Jan-17 19:24N 58°43' E 010°08'1 1.4
2017-Jan-17 18:31N 58°42' E 010°10'1 1.5
2017-Jan-17 17:33N 58°42' E 010°13'4 0.3
2017-Jan-17 06:23N 58°43' E 010°06'1 1.3
2017-Jan-17 05:32N 58°43' E 010°08'1 1.4
2017-Jan-17 04:33N 58°42' E 010°11'1 1.4
2017-Jan-17 03:33N 58°42' E 010°13'4 1.1
2017-Jan-17 00:16N 58°38' E 010°11'1 1.1
2017-Jan-16 23:31N 58°37' E 010°11'1 1.2
2017-Jan-16 22:33N 58°36' E 010°10'1 1.2
2017-Jan-16 21:33N 58°35' E 010°10'4 3.5
2017-Jan-16 20:33N 58°38' E 010°07'7 6.8
2017-Jan-16 19:33N 58°45' E 010°03'0 0.5
2017-Jan-16 18:33N 58°44' E 010°03'1 1.5
2017-Jan-16 17:33N 58°44' E 010°05'1 1.5
2017-Jan-16 16:33N 58°43' E 010°08'2 1.5
2017-Jan-16 15:31N 58°42' E 010°11'2 1.5
2017-Jan-16 14:31N 58°42' E 010°13'1 1.3
2017-Jan-16 13:33N 58°40' E 010°14'2 1.1
2017-Jan-16 11:33N 58°38' E 010°12'1 1.4
2017-Jan-16 10:33N 58°37' E 010°11'1 1.4
2017-Jan-16 09:34N 58°36' E 010°10'2 1.6
2017-Jan-16 08:33N 58°34' E 010°09'5 4.7
2017-Jan-16 07:33N 58°38' E 010°16'1 0.7
2017-Jan-16 06:34N 58°37' E 010°15'2 1.6
2017-Jan-16 05:33N 58°36' E 010°17'2 1.6
2017-Jan-16 04:33N 58°35' E 010°20'2 1.6
2017-Jan-16 03:33N 58°33' E 010°22'2 1.6
2017-Jan-16 02:19N 58°32' E 010°24'1 1.6
2017-Jan-16 01:34N 58°31' E 010°26'2 1.7
2017-Jan-16 00:34N 58°30' E 010°28'2 1.7
2017-Jan-15 23:33N 58°29' E 010°30'1 1.5
2017-Jan-15 22:33N 58°27' E 010°31'1 1.4
2017-Jan-15 21:33N 58°26' E 010°30'1 0.8
2017-Jan-15 20:33N 58°25' E 010°31'8 7.8
2017-Jan-15 19:33N 58°32' E 010°40'8 7.6
2017-Jan-15 18:33N 58°38' E 010°49'7 7.5
2017-Jan-15 17:34N 58°43' E 010°58'8 7.9
2017-Jan-15 16:33N 58°50' E 011°06'6 6.3
2017-Jan-15 15:33N 58°56' E 011°10'0 0.0
2017-Jan-15 14:33N 58°56' E 011°10'0 0.0
2017-Jan-15 13:34N 58°56' E 011°10'0 0.0
2017-Jan-15 12:34N 58°56' E 011°10'0 0.0
2017-Jan-15 11:33N 58°56' E 011°10'0 0.0
2017-Jan-15 10:34N 58°56' E 011°10'0 0.0
2017-Jan-15 09:33N 58°56' E 011°10'0 0.0
2017-Jan-15 08:33N 58°56' E 011°10'0 0.0
2017-Jan-15 07:33N 58°56' E 011°10'0 0.0
2017-Jan-15 06:33N 58°56' E 011°10'0 0.0
2017-Jan-15 05:33N 58°56' E 011°10'0 0.0
2017-Jan-15 04:33N 58°56' E 011°10'0 0.0
2017-Jan-15 03:34N 58°56' E 011°10'0 0.0
2017-Jan-15 02:33N 58°56' E 011°10'0 0.0
2017-Jan-15 01:33N 58°56' E 011°10'0 0.0
2017-Jan-15 00:33N 58°56' E 011°10'0 0.0
2017-Jan-14 23:33N 58°56' E 011°10'0 0.0
2017-Jan-14 22:33N 58°56' E 011°10'0 0.0
2017-Jan-14 21:34N 58°56' E 011°10'0 0.0
2017-Jan-14 20:33N 58°56' E 011°10'0 0.0
2017-Jan-14 19:33N 58°56' E 011°10'0 0.0
2017-Jan-14 18:33N 58°56' E 011°10'0 0.0
2017-Jan-14 17:33N 58°56' E 011°10'0 0.0
2017-Jan-14 16:33N 58°56' E 011°10'0 0.0
2017-Jan-14 15:34N 58°56' E 011°10'0 0.0
2017-Jan-14 14:33N 58°56' E 011°10'0 0.0
2017-Jan-14 13:34N 58°56' E 011°10'0 0.0
2017-Jan-14 12:34N 58°56' E 011°10'0 0.0
2017-Jan-14 11:33N 58°56' E 011°10'0 0.0
2017-Jan-14 10:34N 58°56' E 011°10'0 0.0
2017-Jan-14 09:34N 58°56' E 011°10'0 0.0
2017-Jan-14 08:33N 58°56' E 011°10'0 0.0
2017-Jan-14 07:33N 58°56' E 011°10'0 0.0
2017-Jan-14 06:33N 58°56' E 011°10'0 0.0
2017-Jan-14 05:33N 58°56' E 011°10'0 0.0
2017-Jan-14 04:34N 58°56' E 011°10'0 0.0
2017-Jan-14 03:34N 58°56' E 011°10'0 0.0
2017-Jan-13 23:34N 58°56' E 011°10'0 0.0
2017-Jan-13 22:33N 58°56' E 011°10'0 0.0
2017-Jan-13 21:34N 58°56' E 011°10'0 0.0
2017-Jan-13 20:34N 58°56' E 011°10'0 0.0
2017-Jan-13 19:33N 58°56' E 011°10'0 0.0
2017-Jan-13 18:34N 58°56' E 011°10'0 0.0
2017-Jan-13 17:33N 58°56' E 011°10'0 0.0
2017-Jan-13 16:33N 58°56' E 011°10'0 0.0
2017-Jan-13 15:33N 58°56' E 011°10'0 0.0
2017-Jan-13 14:33N 58°56' E 011°10'0 0.0
2017-Jan-13 13:34N 58°56' E 011°10'0 0.0
2017-Jan-13 12:34N 58°56' E 011°10'0 0.0
2017-Jan-13 11:34N 58°56' E 011°10'0 0.0
2017-Jan-13 10:33N 58°56' E 011°10'0 0.0
2017-Jan-13 09:33N 58°56' E 011°10'0 0.0
2017-Jan-13 08:33N 58°56' E 011°10'0 0.0
2017-Jan-13 07:34N 58°56' E 011°10'0 0.0
2017-Jan-13 06:33N 58°56' E 011°10'0 0.0
2017-Jan-13 05:33N 58°56' E 011°10'0 0.0
2017-Jan-13 04:33N 58°56' E 011°10'0 0.0
2017-Jan-13 03:33N 58°56' E 011°10'0 0.0
2017-Jan-13 02:34N 58°56' E 011°10'0 0.0
2017-Jan-13 01:33N 58°56' E 011°10'0 0.0
2017-Jan-13 00:33N 58°56' E 011°10'0 0.0
2017-Jan-12 23:34N 58°56' E 011°10'0 0.0
2017-Jan-12 22:33N 58°56' E 011°10'0 0.0
2017-Jan-12 21:34N 58°56' E 011°10'0 0.0
2017-Jan-12 20:33N 58°56' E 011°10'0 0.0
2017-Jan-12 19:33N 58°56' E 011°10'0 0.0
2017-Jan-12 18:34N 58°56' E 011°10'0 0.0
2017-Jan-12 17:33N 58°56' E 011°10'0 0.0
2017-Jan-12 16:34N 58°56' E 011°10'0 0.0
2017-Jan-12 15:33N 58°56' E 011°10'0 0.0
2017-Jan-12 14:34N 58°56' E 011°10'0 0.0
2017-Jan-12 13:33N 58°56' E 011°10'0 0.0
2017-Jan-12 12:33N 58°56' E 011°10'0 0.0
2017-Jan-12 11:33N 58°56' E 011°10'0 0.0
2017-Jan-12 10:33N 58°56' E 011°10'0 0.0
2017-Jan-12 09:33N 58°56' E 011°10'0 0.0
2017-Jan-12 08:33N 58°56' E 011°10'0 0.0
2017-Jan-12 07:33N 58°56' E 011°10'0 0.0
2017-Jan-12 06:33N 58°56' E 011°10'0 0.0
2017-Jan-12 05:33N 58°56' E 011°10'0 0.0
2017-Jan-12 04:33N 58°56' E 011°10'0 0.0
2017-Jan-12 03:33N 58°56' E 011°10'0 0.0
2017-Jan-12 02:33N 58°56' E 011°10'0 0.0
2017-Jan-12 01:33N 58°56' E 011°10'0 0.0
2017-Jan-12 00:34N 58°56' E 011°10'0 0.0
2017-Jan-11 23:33N 58°56' E 011°10'0 0.0
2017-Jan-11 22:33N 58°56' E 011°10'0 0.0
2017-Jan-11 21:33N 58°56' E 011°10'0 0.0
2017-Jan-11 20:34N 58°56' E 011°10'0 0.0
2017-Jan-11 19:34N 58°56' E 011°10'0 0.0
2017-Jan-11 18:33N 58°56' E 011°10'0 0.0
2017-Jan-11 17:33N 58°56' E 011°10'0 0.0
2017-Jan-11 16:33N 58°56' E 011°10'0 0.0
2017-Jan-11 15:33N 58°56' E 011°10'0 0.0
2017-Jan-11 14:33N 58°56' E 011°10'0 0.0
2017-Jan-11 13:34N 58°56' E 011°10'0 0.0
2017-Jan-11 12:34N 58°56' E 011°10'0 0.0
2017-Jan-11 11:33N 58°56' E 011°10'0 0.0
2017-Jan-11 10:33N 58°56' E 011°10'0 0.0
2017-Jan-11 09:34N 58°56' E 011°10'0 0.0
2017-Jan-11 08:34N 58°56' E 011°10'0 0.0
2017-Jan-11 07:33N 58°56' E 011°10'0 0.0
2017-Jan-11 06:33N 58°56' E 011°10'0 0.0
2017-Jan-11 05:33N 58°56' E 011°10'0 0.0
2017-Jan-11 04:33N 58°56' E 011°10'0 0.0
2017-Jan-11 03:34N 58°56' E 011°10'0 0.0
2017-Jan-11 02:33N 58°56' E 011°10'0 0.0
2017-Jan-11 01:34N 58°56' E 011°10'0 0.0
2017-Jan-11 00:33N 58°56' E 011°10'0 0.0
2017-Jan-10 23:33N 58°56' E 011°10'0 0.0
2017-Jan-10 22:33N 58°56' E 011°10'0 0.0
2017-Jan-10 21:33N 58°56' E 011°10'0 0.0
2017-Jan-10 20:33N 58°56' E 011°10'0 0.0
2017-Jan-10 19:33N 58°56' E 011°10'0 0.0
2017-Jan-10 18:33N 58°56' E 011°10'0 0.0
2017-Jan-10 17:34N 58°56' E 011°10'0 0.0
2017-Jan-10 16:34N 58°56' E 011°10'0 0.0
2017-Jan-10 15:33N 58°56' E 011°10'0 0.0
2017-Jan-10 14:33N 58°56' E 011°10'0 0.0
2017-Jan-10 13:34N 58°56' E 011°10'0 0.0
2017-Jan-10 12:34N 58°56' E 011°10'0 0.0
2017-Jan-10 11:34N 58°56' E 011°10'0 0.0
2017-Jan-10 10:33N 58°56' E 011°10'0 0.0
2017-Jan-10 09:33N 58°56' E 011°10'0 0.0
2017-Jan-10 08:34N 58°56' E 011°10'0 0.0
2017-Jan-10 07:34N 58°56' E 011°10'0 0.0
2017-Jan-10 06:33N 58°56' E 011°10'0 0.0
2017-Jan-10 05:33N 58°56' E 011°10'0 0.0
2017-Jan-10 04:34N 58°56' E 011°10'0 0.0
2017-Jan-10 03:34N 58°56' E 011°10'0 0.0
2017-Jan-10 02:33N 58°56' E 011°10'0 0.0
2017-Jan-10 01:33N 58°56' E 011°10'0 0.0
2017-Jan-10 00:33N 58°56' E 011°10'0 0.0
2017-Jan-09 23:34N 58°56' E 011°10'0 0.0
2017-Jan-09 22:34N 58°56' E 011°10'0 0.0
2017-Jan-09 21:33N 58°56' E 011°10'0 0.2
2017-Jan-09 20:34N 58°56' E 011°10'0 0.2
2017-Jan-09 19:33N 58°56' E 011°10'4 3.6
2017-Jan-09 18:33N 58°56' E 011°03'7 7.0
2017-Jan-09 17:34N 58°53' E 010°51'7 7.2
2017-Jan-09 16:33N 58°49' E 010°39'7 7.1
2017-Jan-09 15:33N 58°47' E 010°26'7 7.0
2017-Jan-09 14:33N 58°45' E 010°13'5 4.8
2017-Jan-09 13:34N 58°43' E 010°05'1 0.7
2017-Jan-09 12:34N 58°43' E 010°06'1 1.3
2017-Jan-09 11:34N 58°43' E 010°08'1 1.3
2017-Jan-09 10:34N 58°42' E 010°11'1 1.4
2017-Jan-09 09:33N 58°41' E 010°13'1 1.2
2017-Jan-09 08:34N 58°40' E 010°14'1 1.2
2017-Jan-09 07:34N 58°39' E 010°12'1 1.1
2017-Jan-09 06:33N 58°38' E 010°12'1 1.2
2017-Jan-09 05:33N 58°37' E 010°11'1 1.3
2017-Jan-09 04:33N 58°36' E 010°10'2 1.6
2017-Jan-09 03:33N 58°34' E 010°09'5 5.0
2017-Jan-09 02:34N 58°39' E 010°04'6 6.1
2017-Jan-09 01:33N 58°45' E 010°03'0 0.4
2017-Jan-09 00:33N 58°45' E 010°03'1 1.3
2017-Jan-08 23:33N 58°44' E 010°05'1 1.5
2017-Jan-08 22:33N 58°43' E 010°08'  
Track history (hours):
 
Tides and Currents Weather Stations Pressure Air Temp Water Temp Dewpoint Dewpoint Depression Visibility Wind Speed Wind Dir Waves Ship Positions

Sd416 Nippon

Last reported at 2017-Jan-18 21:33 UTC. Time now 2017-Jan-18 22:13 UTC.
Position N 58°56' E 011°10'.

Length 17 m; draft 2.5 m.

Type: Fishing. MMSI: 266163000.

Date/timePositionNaut miles runAvg speedWind from/ knotsBaromVisibWave heightAir tempDewpointWater temp
2017-Jan-18 21:33N 58°56' E 011°10'0 0.0
2017-Jan-18 20:33N 58°56' E 011°10'0 0.0
2017-Jan-18 19:33N 58°56' E 011°10'0 0.0
2017-Jan-18 18:33N 58°56' E 011°10'0 0.0
2017-Jan-18 17:33N 58°56' E 011°10'0 0.0
2017-Jan-18 16:33N 58°56' E 011°10'0 0.0
2017-Jan-18 15:33N 58°56' E 011°10'0 0.0
2017-Jan-18 14:33N 58°56' E 011°10'0 0.0
2017-Jan-18 13:33N 58°56' E 011°10'0 0.0
2017-Jan-18 12:33N 58°56' E 011°10'0 0.0
2017-Jan-18 11:33N 58°56' E 011°10'0 0.0
2017-Jan-18 10:33N 58°56' E 011°10'0 0.0
2017-Jan-18 09:33N 58°56' E 011°10'0 0.5
2017-Jan-18 08:33N 58°56' E 011°10'0 0.4
2017-Jan-18 07:33N 58°56' E 011°10'0 0.0
2017-Jan-18 06:33N 58°56' E 011°10'0 0.0
2017-Jan-18 05:33N 58°56' E 011°10'3 3.3
2017-Jan-18 04:33N 58°56' E 011°04'7 6.6
2017-Jan-18 03:33N 58°53' E 010°52'7 7.2
2017-Jan-18 02:33N 58°51' E 010°39'6 6.4
2017-Jan-18 01:33N 58°49' E 010°27'6 5.8
2017-Jan-18 00:33N 58°47' E 010°17'7 1.7
2017-Jan-17 20:29N 58°43' E 010°05'1 1.4
2017-Jan-17 19:24N 58°43' E 010°08'1 1.4
2017-Jan-17 18:31N 58°42' E 010°10'1 1.5
2017-Jan-17 17:33N 58°42' E 010°13'4 0.3
2017-Jan-17 06:23N 58°43' E 010°06'1 1.3
2017-Jan-17 05:32N 58°43' E 010°08'1 1.4
2017-Jan-17 04:33N 58°42' E 010°11'1 1.4
2017-Jan-17 03:33N 58°42' E 010°13'4 1.1
2017-Jan-17 00:16N 58°38' E 010°11'1 1.1
2017-Jan-16 23:31N 58°37' E 010°11'1 1.2
2017-Jan-16 22:33N 58°36' E 010°10'1 1.2
2017-Jan-16 21:33N 58°35' E 010°10'4 3.5
2017-Jan-16 20:33N 58°38' E 010°07'7 6.8
2017-Jan-16 19:33N 58°45' E 010°03'0 0.5
2017-Jan-16 18:33N 58°44' E 010°03'1 1.5
2017-Jan-16 17:33N 58°44' E 010°05'1 1.5
2017-Jan-16 16:33N 58°43' E 010°08'2 1.5
2017-Jan-16 15:31N 58°42' E 010°11'2 1.5
2017-Jan-16 14:31N 58°42' E 010°13'1 1.3
2017-Jan-16 13:33N 58°40' E 010°14'2 1.1
2017-Jan-16 11:33N 58°38' E 010°12'1 1.4
2017-Jan-16 10:33N 58°37' E 010°11'1 1.4
2017-Jan-16 09:34N 58°36' E 010°10'2 1.6
2017-Jan-16 08:33N 58°34' E 010°09'5 4.7
2017-Jan-16 07:33N 58°38' E 010°16'1 0.7
2017-Jan-16 06:34N 58°37' E 010°15'2 1.6
2017-Jan-16 05:33N 58°36' E 010°17'2 1.6
2017-Jan-16 04:33N 58°35' E 010°20'2 1.6
2017-Jan-16 03:33N 58°33' E 010°22'2 1.6
2017-Jan-16 02:19N 58°32' E 010°24'1 1.6
2017-Jan-16 01:34N 58°31' E 010°26'2 1.7
2017-Jan-16 00:34N 58°30' E 010°28'2 1.7
2017-Jan-15 23:33N 58°29' E 010°30'1 1.5
2017-Jan-15 22:33N 58°27' E 010°31'1 1.4
2017-Jan-15 21:33N 58°26' E 010°30'1 0.8
2017-Jan-15 20:33N 58°25' E 010°31'8 7.8
2017-Jan-15 19:33N 58°32' E 010°40'8 7.6
2017-Jan-15 18:33N 58°38' E 010°49'7 7.5
2017-Jan-15 17:34N 58°43' E 010°58'8 7.9
2017-Jan-15 16:33N 58°50' E 011°06'6 6.3
2017-Jan-15 15:33N 58°56' E 011°10'0 0.0
2017-Jan-15 14:33N 58°56' E 011°10'0 0.0
2017-Jan-15 13:34N 58°56' E 011°10'0 0.0
2017-Jan-15 12:34N 58°56' E 011°10'0 0.0
2017-Jan-15 11:33N 58°56' E 011°10'0 0.0
2017-Jan-15 10:34N 58°56' E 011°10'0 0.0
2017-Jan-15 09:33N 58°56' E 011°10'0 0.0
2017-Jan-15 08:33N 58°56' E 011°10'0 0.0
2017-Jan-15 07:33N 58°56' E 011°10'0 0.0
2017-Jan-15 06:33N 58°56' E 011°10'0 0.0
2017-Jan-15 05:33N 58°56' E 011°10'0 0.0
2017-Jan-15 04:33N 58°56' E 011°10'0 0.0
2017-Jan-15 03:34N 58°56' E 011°10'0 0.0
2017-Jan-15 02:33N 58°56' E 011°10'0 0.0
2017-Jan-15 01:33N 58°56' E 011°10'0 0.0
2017-Jan-15 00:33N 58°56' E 011°10'0 0.0
2017-Jan-14 23:33N 58°56' E 011°10'0 0.0
2017-Jan-14 22:33N 58°56' E 011°10'0 0.0
2017-Jan-14 21:34N 58°56' E 011°10'0 0.0
2017-Jan-14 20:33N 58°56' E 011°10'0 0.0
2017-Jan-14 19:33N 58°56' E 011°10'0 0.0
2017-Jan-14 18:33N 58°56' E 011°10'0 0.0
2017-Jan-14 17:33N 58°56' E 011°10'0 0.0
2017-Jan-14 16:33N 58°56' E 011°10'0 0.0
2017-Jan-14 15:34N 58°56' E 011°10'0 0.0
2017-Jan-14 14:33N 58°56' E 011°10'0 0.0
2017-Jan-14 13:34N 58°56' E 011°10'0 0.0
2017-Jan-14 12:34N 58°56' E 011°10'0 0.0
2017-Jan-14 11:33N 58°56' E 011°10'0 0.0
2017-Jan-14 10:34N 58°56' E 011°10'0 0.0
2017-Jan-14 09:34N 58°56' E 011°10'0 0.0
2017-Jan-14 08:33N 58°56' E 011°10'0 0.0
2017-Jan-14 07:33N 58°56' E 011°10'0 0.0
2017-Jan-14 06:33N 58°56' E 011°10'0 0.0
2017-Jan-14 05:33N 58°56' E 011°10'0 0.0
2017-Jan-14 04:34N 58°56' E 011°10'0 0.0
2017-Jan-14 03:34N 58°56' E 011°10'0 0.0
2017-Jan-13 23:34N 58°56' E 011°10'0 0.0
2017-Jan-13 22:33N 58°56' E 011°10'0 0.0
2017-Jan-13 21:34N 58°56' E 011°10'0 0.0
2017-Jan-13 20:34N 58°56' E 011°10'0 0.0
2017-Jan-13 19:33N 58°56' E 011°10'0 0.0
2017-Jan-13 18:34N 58°56' E 011°10'0 0.0
2017-Jan-13 17:33N 58°56' E 011°10'0 0.0
2017-Jan-13 16:33N 58°56' E 011°10'0 0.0
2017-Jan-13 15:33N 58°56' E 011°10'0 0.0
2017-Jan-13 14:33N 58°56' E 011°10'0 0.0
2017-Jan-13 13:34N 58°56' E 011°10'0 0.0
2017-Jan-13 12:34N 58°56' E 011°10'0 0.0
2017-Jan-13 11:34N 58°56' E 011°10'0 0.0
2017-Jan-13 10:33N 58°56' E 011°10'0 0.0
2017-Jan-13 09:33N 58°56' E 011°10'0 0.0
2017-Jan-13 08:33N 58°56' E 011°10'0 0.0
2017-Jan-13 07:34N 58°56' E 011°10'0 0.0
2017-Jan-13 06:33N 58°56' E 011°10'0 0.0
2017-Jan-13 05:33N 58°56' E 011°10'0 0.0
2017-Jan-13 04:33N 58°56' E 011°10'0 0.0
2017-Jan-13 03:33N 58°56' E 011°10'0 0.0
2017-Jan-13 02:34N 58°56' E 011°10'0 0.0
2017-Jan-13 01:33N 58°56' E 011°10'0 0.0
2017-Jan-13 00:33N 58°56' E 011°10'0 0.0
2017-Jan-12 23:34N 58°56' E 011°10'0 0.0
2017-Jan-12 22:33N 58°56' E 011°10'0 0.0
2017-Jan-12 21:34N 58°56' E 011°10'0 0.0
2017-Jan-12 20:33N 58°56' E 011°10'0 0.0
2017-Jan-12 19:33N 58°56' E 011°10'0 0.0
2017-Jan-12 18:34N 58°56' E 011°10'0 0.0
2017-Jan-12 17:33N 58°56' E 011°10'0 0.0
2017-Jan-12 16:34N 58°56' E 011°10'0 0.0
2017-Jan-12 15:33N 58°56' E 011°10'0 0.0
2017-Jan-12 14:34N 58°56' E 011°10'0 0.0
2017-Jan-12 13:33N 58°56' E 011°10'0 0.0
2017-Jan-12 12:33N 58°56' E 011°10'0 0.0
2017-Jan-12 11:33N 58°56' E 011°10'0 0.0
2017-Jan-12 10:33N 58°56' E 011°10'0 0.0
2017-Jan-12 09:33N 58°56' E 011°10'0 0.0
2017-Jan-12 08:33N 58°56' E 011°10'0 0.0
2017-Jan-12 07:33N 58°56' E 011°10'0 0.0
2017-Jan-12 06:33N 58°56' E 011°10'0 0.0
2017-Jan-12 05:33N 58°56' E 011°10'0 0.0
2017-Jan-12 04:33N 58°56' E 011°10'0 0.0
2017-Jan-12 03:33N 58°56' E 011°10'0 0.0
2017-Jan-12 02:33N 58°56' E 011°10'0 0.0
2017-Jan-12 01:33N 58°56' E 011°10'0 0.0
2017-Jan-12 00:34N 58°56' E 011°10'0 0.0
2017-Jan-11 23:33N 58°56' E 011°10'0 0.0
2017-Jan-11 22:33N 58°56' E 011°10'0 0.0
2017-Jan-11 21:33N 58°56' E 011°10'0 0.0
2017-Jan-11 20:34N 58°56' E 011°10'0 0.0
2017-Jan-11 19:34N 58°56' E 011°10'0 0.0
2017-Jan-11 18:33N 58°56' E 011°10'0 0.0
2017-Jan-11 17:33N 58°56' E 011°10'0 0.0
2017-Jan-11 16:33N 58°56' E 011°10'0 0.0
2017-Jan-11 15:33N 58°56' E 011°10'0 0.0
2017-Jan-11 14:33N 58°56' E 011°10'0 0.0
2017-Jan-11 13:34N 58°56' E 011°10'0 0.0
2017-Jan-11 12:34N 58°56' E 011°10'0 0.0
2017-Jan-11 11:33N 58°56' E 011°10'0 0.0
2017-Jan-11 10:33N 58°56' E 011°10'0 0.0
2017-Jan-11 09:34N 58°56' E 011°10'0 0.0
2017-Jan-11 08:34N 58°56' E 011°10'0 0.0
2017-Jan-11 07:33N 58°56' E 011°10'0 0.0
2017-Jan-11 06:33N 58°56' E 011°10'0 0.0
2017-Jan-11 05:33N 58°56' E 011°10'0 0.0
2017-Jan-11 04:33N 58°56' E 011°10'0 0.0
2017-Jan-11 03:34N 58°56' E 011°10'0 0.0
2017-Jan-11 02:33N 58°56' E 011°10'0 0.0
2017-Jan-11 01:34N 58°56' E 011°10'0 0.0
2017-Jan-11 00:33N 58°56' E 011°10'0 0.0
2017-Jan-10 23:33N 58°56' E 011°10'0 0.0
2017-Jan-10 22:33N 58°56' E 011°10'0 0.0
2017-Jan-10 21:33N 58°56' E 011°10'0 0.0
2017-Jan-10 20:33N 58°56' E 011°10'0 0.0
2017-Jan-10 19:33N 58°56' E 011°10'0 0.0
2017-Jan-10 18:33N 58°56' E 011°10'0 0.0
2017-Jan-10 17:34N 58°56' E 011°10'0 0.0
2017-Jan-10 16:34N 58°56' E 011°10'0 0.0
2017-Jan-10 15:33N 58°56' E 011°10'0 0.0
2017-Jan-10 14:33N 58°56' E 011°10'0 0.0
2017-Jan-10 13:34N 58°56' E 011°10'0 0.0
2017-Jan-10 12:34N 58°56' E 011°10'0 0.0
2017-Jan-10 11:34N 58°56' E 011°10'0 0.0
2017-Jan-10 10:33N 58°56' E 011°10'0 0.0
2017-Jan-10 09:33N 58°56' E 011°10'0 0.0
2017-Jan-10 08:34N 58°56' E 011°10'0 0.0
2017-Jan-10 07:34N 58°56' E 011°10'0 0.0
2017-Jan-10 06:33N 58°56' E 011°10'0 0.0
2017-Jan-10 05:33N 58°56' E 011°10'0 0.0
2017-Jan-10 04:34N 58°56' E 011°10'0 0.0
2017-Jan-10 03:34N 58°56' E 011°10'0 0.0
2017-Jan-10 02:33N 58°56' E 011°10'0 0.0
2017-Jan-10 01:33N 58°56' E 011°10'0 0.0
2017-Jan-10 00:33N 58°56' E 011°10'0 0.0
2017-Jan-09 23:34N 58°56' E 011°10'0 0.0
2017-Jan-09 22:34N 58°56' E 011°10'0 0.0
2017-Jan-09 21:33N 58°56' E 011°10'0 0.2
2017-Jan-09 20:34N 58°56' E 011°10'0 0.2
2017-Jan-09 19:33N 58°56' E 011°10'4 3.6
2017-Jan-09 18:33N 58°56' E 011°03'7 7.0
2017-Jan-09 17:34N 58°53' E 010°51'7 7.2
2017-Jan-09 16:33N 58°49' E 010°39'7 7.1
2017-Jan-09 15:33N 58°47' E 010°26'7 7.0
2017-Jan-09 14:33N 58°45' E 010°13'5 4.8
2017-Jan-09 13:34N 58°43' E 010°05'1 0.7
2017-Jan-09 12:34N 58°43' E 010°06'1 1.3
2017-Jan-09 11:34N 58°43' E 010°08'1 1.3
2017-Jan-09 10:34N 58°42' E 010°11'1 1.4
2017-Jan-09 09:33N 58°41' E 010°13'1 1.2
2017-Jan-09 08:34N 58°40' E 010°14'1 1.2
2017-Jan-09 07:34N 58°39' E 010°12'1 1.1
2017-Jan-09 06:33N 58°38' E 010°12'1 1.2
2017-Jan-09 05:33N 58°37' E 010°11'1 1.3
2017-Jan-09 04:33N 58°36' E 010°10'2 1.6
2017-Jan-09 03:33N 58°34' E 010°09'5 5.0
2017-Jan-09 02:34N 58°39' E 010°04'6 6.1
2017-Jan-09 01:33N 58°45' E 010°03'0 0.4
2017-Jan-09 00:33N 58°45' E 010°03'1 1.3
2017-Jan-08 23:33N 58°44' E 010°05'1 1.5
2017-Jan-08 22:33N 58°43' E 010°08'  

Dump ship's entire track history